createdAt,value
2022-09-04T00:02:27.593Z,99357.72
2022-09-04T00:05:27.428Z,99359.00
2022-09-04T00:08:17.466Z,99363.09
2022-09-04T00:11:31.535Z,99371.78
2022-09-04T00:14:18.390Z,99373.22
2022-09-04T00:17:10.873Z,99372.41
2022-09-04T00:19:59.426Z,99371.03
2022-09-04T00:22:54.881Z,99366.97
2022-09-04T00:25:37.781Z,99373.91
2022-09-04T00:28:24.123Z,99366.72
2022-09-04T00:31:09.225Z,99373.91
2022-09-04T00:34:00.604Z,99370.88
2022-09-04T00:36:32.500Z,99382.03
2022-09-04T00:39:14.102Z,99372.22
2022-09-04T00:41:57.861Z,99373.31
2022-09-04T00:44:56.270Z,99377.22
2022-09-04T00:47:55.912Z,99368.16
2022-09-04T00:50:46.468Z,99372.50
2022-09-04T00:53:42.708Z,99367.97
2022-09-04T00:56:28.744Z,99374.97
2022-09-04T00:59:23.045Z,99367.22
2022-09-04T01:02:04.471Z,99376.28
2022-09-04T01:04:45.908Z,99376.94
2022-09-04T01:07:35.285Z,99379.44
2022-09-04T01:10:19.561Z,99376.41
2022-09-04T01:13:06.881Z,99374.31
2022-09-04T01:15:46.038Z,99374.53
2022-09-04T01:18:46.917Z,99372.25
2022-09-04T01:21:43.429Z,99379.81
2022-09-04T01:24:58.897Z,99376.94
2022-09-04T01:27:45.986Z,99380.47
2022-09-04T01:30:22.337Z,99385.00
2022-09-04T01:33:31.539Z,99382.50
2022-09-04T01:36:22.867Z,99378.72
2022-09-04T01:38:58.546Z,99381.34
2022-09-04T01:41:37.803Z,99390.03
2022-09-04T01:44:11.720Z,99391.44
2022-09-04T01:46:55.101Z,99390.03
2022-09-04T01:49:53.958Z,99386.28
2022-09-04T01:52:47.952Z,99394.53
2022-09-04T01:55:44.894Z,99392.28
2022-09-04T01:58:38.665Z,99390.63
2022-09-04T02:01:29.460Z,99391.44
2022-09-04T02:04:18.259Z,99397.63
2022-09-04T02:07:10.854Z,99389.44
2022-09-04T02:10:00.613Z,99396.28
2022-09-04T02:12:50.987Z,99396.84
2022-09-04T02:15:43.097Z,99398.72
2022-09-04T02:18:24.577Z,99407.13
2022-09-04T02:21:05.117Z,99402.16
2022-09-04T02:23:44.335Z,99400.75
2022-09-04T02:26:54.813Z,99389.59
2022-09-04T02:29:40.296Z,99396.19
2022-09-04T02:32:21.973Z,99394.31
2022-09-04T02:35:34.220Z,99400.91
2022-09-04T02:38:32.386Z,99400.59
2022-09-04T02:41:28.217Z,99405.16
2022-09-04T02:44:25.441Z,99401.72
2022-09-04T02:47:05.334Z,99397.41
2022-09-04T02:49:58.470Z,99400.94
2022-09-04T02:52:59.683Z,99389.66
2022-09-04T02:55:58.646Z,99393.38
2022-09-04T02:58:30.181Z,99393.94
2022-09-04T03:01:27.310Z,99391.88
2022-09-04T03:04:19.138Z,99398.44
2022-09-04T03:07:08.141Z,99397.19
2022-09-04T03:09:51.781Z,99397.78
2022-09-04T03:12:42.060Z,99401.50
2022-09-04T03:15:27.420Z,99400.69
2022-09-04T03:18:28.372Z,99406.41
2022-09-04T03:21:03.466Z,99403.31
2022-09-04T03:23:48.401Z,99403.06
2022-09-04T03:26:34.786Z,99399.81
2022-09-04T03:29:15.667Z,99408.66
2022-09-04T03:32:16.495Z,99412.75
2022-09-04T03:34:57.408Z,99417.88
2022-09-04T03:37:38.193Z,99415.81
2022-09-04T03:40:43.385Z,99419.31
2022-09-04T03:43:22.148Z,99413.97
2022-09-04T03:46:11.994Z,99420.56
2022-09-04T03:49:07.403Z,99407.84
2022-09-04T03:51:51.150Z,99412.97
2022-09-04T03:54:32.364Z,99418.31
2022-09-04T03:57:35.487Z,99419.56
2022-09-04T04:00:10.880Z,99431.28
2022-09-04T04:03:21.976Z,99433.81
2022-09-04T04:06:15.046Z,99437.97
2022-09-04T04:08:56.624Z,99436.94
2022-09-04T04:12:04.396Z,99437.72
2022-09-04T04:14:42.343Z,99435.44
2022-09-04T04:17:51.813Z,99431.34
2022-09-04T04:20:41.252Z,99433.19
2022-09-04T04:23:37.721Z,99438.53
2022-09-04T04:26:24.513Z,99445.38
2022-09-04T04:29:08.626Z,99439.22
2022-09-04T04:32:10.693Z,99443.22
2022-09-04T04:35:04.950Z,99445.78
2022-09-04T04:38:00.546Z,99447.66
2022-09-04T04:41:03.136Z,99448.13
2022-09-04T04:43:55.848Z,99462.31
2022-09-04T04:46:46.154Z,99471.16
2022-09-04T04:49:20.669Z,99475.44
2022-09-04T04:52:07.170Z,99478.94
2022-09-04T04:54:41.439Z,99482.63
2022-09-04T04:57:27.373Z,99486.13
2022-09-04T05:00:32.159Z,99489.38
2022-09-04T05:03:15.477Z,99497.59
2022-09-04T05:06:16.385Z,99494.72
2022-09-04T05:09:03.229Z,99503.09
2022-09-04T05:12:03.170Z,99511.47
2022-09-04T05:14:47.562Z,99512.50
2022-09-04T05:17:40.670Z,99521.94
2022-09-04T05:20:28.832Z,99518.66
2022-09-04T05:23:17.169Z,99522.91
2022-09-04T05:26:12.173Z,99520.75
2022-09-04T05:28:59.509Z,99522.13
2022-09-04T05:31:38.262Z,99522.31
2022-09-04T05:34:36.005Z,99521.50
2022-09-04T05:37:17.062Z,99525.28
2022-09-04T05:40:07.050Z,99535.56
2022-09-04T05:42:50.776Z,99536.88
2022-09-04T05:45:49.270Z,99537.84
2022-09-04T05:48:34.623Z,99542.63
2022-09-04T05:51:18.546Z,99544.44
2022-09-04T05:54:08.321Z,99547.94
2022-09-04T05:56:50.120Z,99552.59
2022-09-04T05:59:44.102Z,99556.06
2022-09-04T06:02:49.959Z,99558.84
2022-09-04T06:05:44.348Z,99548.69
2022-09-04T06:08:29.004Z,99547.13
2022-09-04T06:11:09.393Z,99556.66
2022-09-04T06:13:46.705Z,99550.72
2022-09-04T06:16:27.468Z,99553.19
2022-09-04T06:19:27.743Z,99556.66
2022-09-04T06:22:05.313Z,99554.44
2022-09-04T06:25:05.253Z,99545.38
2022-09-04T06:28:20.047Z,99560.13
2022-09-04T06:31:19.893Z,99550.94
2022-09-04T06:34:06.862Z,99555.38
2022-09-04T06:36:47.478Z,99558.38
2022-09-04T06:39:42.468Z,99551.41
2022-09-04T06:42:54.219Z,99556.59
2022-09-04T06:45:42.655Z,99557.88
2022-09-04T06:48:32.595Z,99555.28
2022-09-04T06:51:08.132Z,99567.19
2022-09-04T06:53:48.054Z,99564.00
2022-09-04T06:56:22.435Z,99566.47
2022-09-04T06:59:21.561Z,99567.38
2022-09-04T07:02:04.093Z,99570.84
2022-09-04T07:04:54.677Z,99576.28
2022-09-04T07:07:58.436Z,99566.66
2022-09-04T07:10:49.302Z,99570.81
2022-09-04T07:13:44.189Z,99577.91
2022-09-04T07:16:40.503Z,99580.72
2022-09-04T07:19:56.337Z,99579.28
2022-09-04T07:22:37.051Z,99583.16
2022-09-04T07:25:29.841Z,99594.28
2022-09-04T07:28:23.767Z,99600.41
2022-09-04T07:31:08.218Z,99594.38
2022-09-04T07:33:56.727Z,99597.34
2022-09-04T07:36:40.085Z,99600.25
2022-09-04T07:39:37.585Z,99616.34
2022-09-04T07:42:32.726Z,99610.75
2022-09-04T07:45:14.474Z,99607.41
2022-09-04T07:47:57.334Z,99614.28
2022-09-04T07:50:35.671Z,99610.63
2022-09-04T07:53:25.505Z,99612.88
2022-09-04T07:56:07.692Z,99617.44
2022-09-04T07:58:56.731Z,99624.59
2022-09-04T08:01:40.230Z,99627.31
2022-09-04T08:04:15.129Z,99628.44
2022-09-04T08:06:53.429Z,99629.78
2022-09-04T08:10:06.621Z,99636.03
2022-09-04T08:13:02.452Z,99633.59
2022-09-04T08:15:49.912Z,99640.31
2022-09-04T08:19:01.532Z,99636.66
2022-09-04T08:21:40.131Z,99640.69
2022-09-04T08:24:50.223Z,99645.97
2022-09-04T08:27:49.942Z,99649.59
2022-09-04T08:30:22.104Z,99658.75
2022-09-04T08:33:20.609Z,99658.56
2022-09-04T08:36:02.133Z,99649.47
2022-09-04T08:38:36.719Z,99660.38
2022-09-04T08:41:36.112Z,99654.19
2022-09-04T08:44:32.605Z,99660.38
2022-09-04T08:47:36.533Z,99663.69
2022-09-04T08:50:38.468Z,99659.16
2022-09-04T08:53:20.368Z,99659.78
2022-09-04T08:56:11.125Z,99658.63
2022-09-04T08:59:26.475Z,99661.28
2022-09-04T09:02:06.975Z,99657.88
2022-09-04T09:05:10.176Z,99668.94
2022-09-04T09:07:52.178Z,99653.44
2022-09-04T09:10:38.672Z,99669.13
2022-09-04T09:13:16.194Z,99664.38
2022-09-04T09:16:12.489Z,99678.69
2022-09-04T09:19:10.145Z,99673.22
2022-09-04T09:22:12.485Z,99666.81
2022-09-04T09:25:22.850Z,99668.66
2022-09-04T09:28:29.228Z,99677.59
2022-09-04T09:31:16.879Z,99670.53
2022-09-04T09:34:33.811Z,99673.13
2022-09-04T09:37:28.519Z,99679.63
2022-09-04T09:40:32.461Z,99670.38
2022-09-04T09:43:17.634Z,99673.03
2022-09-04T09:46:24.760Z,99664.31
2022-09-04T09:49:05.389Z,99659.88
2022-09-04T09:52:07.005Z,99659.44
2022-09-04T09:55:09.534Z,99649.91
2022-09-04T09:58:02.076Z,99654.75
2022-09-04T10:01:00.157Z,99655.75
2022-09-04T10:04:13.008Z,99649.13
2022-09-04T10:07:20.024Z,99655.47
2022-09-04T10:10:24.859Z,99656.56
2022-09-04T10:13:14.921Z,99656.00
2022-09-04T10:16:13.774Z,99647.13
2022-09-04T10:19:18.281Z,99657.22
2022-09-04T10:22:24.382Z,99646.16
2022-09-04T10:25:09.678Z,99653.84
2022-09-04T10:27:53.246Z,99642.22
2022-09-04T10:30:37.386Z,99641.22
2022-09-04T10:33:31.605Z,99639.75
2022-09-04T10:36:59.502Z,99635.06
2022-09-04T10:40:25.030Z,99630.56
2022-09-04T10:43:26.809Z,99633.72
2022-09-04T10:46:13.748Z,99631.56
2022-09-04T10:49:31.713Z,99636.84
2022-09-04T10:52:30.293Z,99629.13
2022-09-04T10:55:20.249Z,99632.28
2022-09-04T10:58:08.758Z,99645.50
2022-09-04T11:01:05.425Z,99639.44
2022-09-04T11:03:44.316Z,99639.00
2022-09-04T11:06:18.806Z,99638.94
2022-09-04T11:08:53.160Z,99642.75
2022-09-04T11:11:43.528Z,99643.28
2022-09-04T11:14:43.342Z,99646.22
2022-09-04T11:17:20.623Z,99646.34
2022-09-04T11:20:27.382Z,99654.00
2022-09-04T11:23:32.765Z,99640.66
2022-09-04T11:26:29.937Z,99638.13
2022-09-04T11:29:12.783Z,99640.47
2022-09-04T11:32:12.895Z,99631.56
2022-09-04T11:35:22.235Z,99629.28
2022-09-04T11:38:25.233Z,99632.03
2022-09-04T11:41:31.348Z,99624.78
2022-09-04T11:44:02.878Z,99618.09
2022-09-04T11:46:37.161Z,99626.09
2022-09-04T11:49:16.332Z,99612.41
2022-09-04T11:52:14.820Z,99617.91
2022-09-04T11:55:07.495Z,99615.28
2022-09-04T11:58:03.773Z,99621.34
2022-09-04T12:01:16.300Z,99616.28
2022-09-04T12:03:49.532Z,99622.44
2022-09-04T12:06:39.618Z,99623.03
2022-09-04T12:09:36.079Z,99623.50
2022-09-04T12:12:58.224Z,99624.22
2022-09-04T12:15:35.751Z,99619.22
2022-09-04T12:18:33.510Z,99619.53
2022-09-04T12:21:08.932Z,99616.28
2022-09-04T12:24:07.477Z,99615.97
2022-09-04T12:27:03.611Z,99617.72
2022-09-04T12:30:03.867Z,99616.22
2022-09-04T12:32:38.223Z,99614.56
2022-09-04T12:35:32.075Z,99617.72
2022-09-04T12:38:09.913Z,99623.63
2022-09-04T12:41:13.501Z,99617.59
2022-09-04T12:43:52.752Z,99636.84
2022-09-04T12:47:00.563Z,99628.94
2022-09-04T12:49:49.028Z,99629.69
2022-09-04T12:52:42.174Z,99630.38
2022-09-04T12:55:23.179Z,99625.41
2022-09-04T12:58:33.870Z,99628.22
2022-09-04T13:01:19.215Z,99628.88
2022-09-04T13:04:01.191Z,99628.81
2022-09-04T13:06:55.686Z,99627.53
2022-09-04T13:09:45.788Z,99625.66
2022-09-04T13:12:56.107Z,99631.81
2022-09-04T13:15:28.636Z,99629.81
2022-09-04T13:18:22.264Z,99632.00
2022-09-04T13:20:58.711Z,99631.66
2022-09-04T13:24:10.918Z,99640.31
2022-09-04T13:27:00.615Z,99644.81
2022-09-04T13:30:05.642Z,99642.47
2022-09-04T13:32:55.191Z,99643.44
2022-09-04T13:35:42.940Z,99646.97
2022-09-04T13:38:43.221Z,99649.97
2022-09-04T13:41:38.839Z,99651.97
2022-09-04T13:44:28.404Z,99661.63
2022-09-04T13:47:06.583Z,99657.47
2022-09-04T13:49:51.284Z,99664.28
2022-09-04T13:52:34.131Z,99659.94
2022-09-04T13:55:26.387Z,99653.44
2022-09-04T13:58:10.976Z,99647.19
2022-09-04T14:00:49.296Z,99645.91
2022-09-04T14:03:36.492Z,99660.31
2022-09-04T14:06:11.662Z,99650.78
2022-09-04T14:08:46.311Z,99657.28
2022-09-04T14:12:04.098Z,99647.38
2022-09-04T14:14:51.396Z,99652.59
2022-09-04T14:17:31.033Z,99649.25
2022-09-04T14:20:24.900Z,99645.56
2022-09-04T14:23:35.327Z,99648.94
2022-09-04T14:26:12.980Z,99656.06
2022-09-04T14:29:04.144Z,99651.19
2022-09-04T14:31:52.364Z,99655.25
2022-09-04T14:35:10.366Z,99648.44
2022-09-04T14:38:05.465Z,99653.59
2022-09-04T14:40:42.341Z,99645.97
2022-09-04T14:43:28.495Z,99650.91
2022-09-04T14:46:38.957Z,99648.72
2022-09-04T14:49:17.171Z,99653.41
2022-09-04T14:51:56.649Z,99650.69
2022-09-04T14:54:53.045Z,99649.28
2022-09-04T14:57:39.450Z,99652.81
2022-09-04T15:00:20.835Z,99649.59
2022-09-04T15:03:12.111Z,99648.75
2022-09-04T15:05:56.776Z,99646.59
2022-09-04T15:08:40.583Z,99645.50
2022-09-04T15:11:31.657Z,99646.56
2022-09-04T15:14:09.318Z,99652.00
2022-09-04T15:16:49.696Z,99653.91
2022-09-04T15:19:52.656Z,99662.59
2022-09-04T15:22:57.600Z,99655.53
2022-09-04T15:26:02.075Z,99656.63
2022-09-04T15:28:39.799Z,99661.19
2022-09-04T15:31:17.067Z,99653.63
2022-09-04T15:33:49.155Z,99650.88
2022-09-04T15:36:24.581Z,99650.59
2022-09-04T15:38:59.098Z,99651.41
2022-09-04T15:41:44.804Z,99653.59
2022-09-04T15:44:33.115Z,99653.06
2022-09-04T15:47:04.658Z,99656.03
2022-09-04T15:49:41.942Z,99655.16
2022-09-04T15:52:28.736Z,99663.81
2022-09-04T15:55:28.365Z,99654.81
2022-09-04T15:58:30.177Z,99666.88
2022-09-04T16:01:12.088Z,99670.38
2022-09-04T16:04:15.570Z,99675.56
2022-09-04T16:06:57.759Z,99679.91
2022-09-04T16:09:50.123Z,99681.97
2022-09-04T16:12:30.800Z,99678.09
2022-09-04T16:15:10.834Z,99679.72
2022-09-04T16:17:47.105Z,99680.19
2022-09-04T16:20:25.638Z,99685.88
2022-09-04T16:23:07.546Z,99689.28
2022-09-04T16:25:43.096Z,99685.44
2022-09-04T16:28:25.552Z,99679.41
2022-09-04T16:31:01.938Z,99683.56
2022-09-04T16:33:40.753Z,99684.94
2022-09-04T16:36:25.093Z,99691.41
2022-09-04T16:39:13.393Z,99683.81
2022-09-04T16:41:54.653Z,99689.53
2022-09-04T16:44:38.549Z,99683.25
2022-09-04T16:47:48.921Z,99679.69
2022-09-04T16:50:23.561Z,99687.97
2022-09-04T16:53:13.361Z,99693.56
2022-09-04T16:56:00.882Z,99695.94
2022-09-04T16:58:50.098Z,99699.22
2022-09-04T17:01:57.237Z,99704.38
2022-09-04T17:04:44.215Z,99699.94
2022-09-04T17:07:23.304Z,99711.38
2022-09-04T17:09:58.706Z,99703.50
2022-09-04T17:13:01.333Z,99715.94
2022-09-04T17:15:58.818Z,99711.19
2022-09-04T17:18:31.729Z,99715.84
2022-09-04T17:26:29.855Z,99719.13
2022-09-04T17:29:01.072Z,99726.16
2022-09-04T17:29:14.171Z,99721.56
2022-09-04T17:31:15.615Z,99727.81
2022-09-04T17:38:49.250Z,99726.16
2022-09-04T17:40:40.195Z,99729.94
2022-09-04T17:41:40.707Z,99731.19
2022-09-04T17:44:03.332Z,99742.09
2022-09-04T17:46:59.427Z,99741.75
2022-09-04T17:49:34.723Z,99752.22
2022-09-04T17:52:11.051Z,99744.22
2022-09-04T17:54:48.849Z,99759.56
2022-09-04T17:57:26.077Z,99760.56
2022-09-04T18:00:06.884Z,99756.72
2022-09-04T18:02:49.768Z,99771.22
2022-09-04T18:05:33.647Z,99773.59
2022-09-04T18:08:20.311Z,99782.44
2022-09-04T18:11:01.073Z,99788.00
2022-09-04T18:14:02.162Z,99793.00
2022-09-04T18:16:38.483Z,99799.13
2022-09-04T18:19:25.497Z,99792.00
2022-09-04T18:22:31.956Z,99793.53
2022-09-04T18:25:16.318Z,99797.00
2022-09-04T18:28:22.091Z,99800.06
2022-09-04T18:37:06.060Z,99806.22
2022-09-04T18:37:19.638Z,99811.53
2022-09-04T18:37:44.301Z,99809.66
2022-09-04T18:40:39.187Z,99806.94
2022-09-04T18:50:29.023Z,99810.84
2022-09-04T18:50:34.959Z,99811.97
2022-09-04T18:50:40.369Z,99814.25
2022-09-04T18:56:20.443Z,99818.47
2022-09-04T18:58:57.922Z,99814.38
2022-09-04T19:01:38.438Z,99814.75
2022-09-04T19:04:19.312Z,99822.63
2022-09-04T19:07:07.150Z,99827.94
2022-09-04T19:09:55.795Z,99828.53
2022-09-04T19:12:52.185Z,99828.25
2022-09-04T19:15:36.902Z,99832.81
2022-09-04T19:18:45.998Z,99832.16
2022-09-04T19:21:20.952Z,99832.06
2022-09-04T19:24:22.538Z,99840.19
2022-09-04T19:26:54.341Z,99843.00
2022-09-04T19:29:31.792Z,99846.16
2022-09-04T19:32:14.483Z,99839.59
2022-09-04T19:34:55.182Z,99842.41
2022-09-04T19:39:41.419Z,99835.97
2022-09-04T19:46:05.197Z,99834.69
2022-09-04T19:46:15.954Z,99838.19
2022-09-04T19:47:28.911Z,99833.84
2022-09-04T19:53:17.966Z,99840.31
2022-09-04T19:53:42.158Z,99839.13
2022-09-04T19:57:32.337Z,99839.47
2022-09-04T19:59:44.908Z,99841.47
2022-09-04T20:02:21.028Z,99841.09
2022-09-04T20:04:58.969Z,99842.63
2022-09-04T20:07:48.638Z,99851.53
2022-09-04T20:10:32.080Z,99847.19
2022-09-04T20:13:28.706Z,99849.88
2022-09-04T20:16:25.184Z,99849.78
2022-09-04T20:19:16.844Z,99845.91
2022-09-04T20:22:25.753Z,99854.44
2022-09-04T20:25:06.685Z,99852.00
2022-09-04T20:27:46.071Z,99856.78
2022-09-04T20:30:21.256Z,99859.50
2022-09-04T20:33:12.025Z,99853.28
2022-09-04T20:36:09.348Z,99857.03
2022-09-04T20:39:05.740Z,99854.81
2022-09-04T20:41:43.583Z,99859.59
2022-09-04T20:44:45.862Z,99865.47
2022-09-04T20:52:44.830Z,99866.50
2022-09-04T20:52:54.193Z,99862.28
2022-09-04T20:53:42.757Z,99858.97
2022-09-04T20:58:35.038Z,99866.75
2022-09-04T21:03:13.781Z,99867.78
2022-09-04T21:03:15.216Z,99871.78
2022-09-04T21:06:07.296Z,99870.97
2022-09-04T21:08:52.193Z,99872.00
2022-09-04T21:11:39.620Z,99871.19
2022-09-04T21:14:39.789Z,99876.44
2022-09-04T21:17:33.799Z,99884.00
2022-09-04T21:20:06.821Z,99891.88
2022-09-04T21:22:59.598Z,99884.28
2022-09-04T21:25:44.354Z,99889.03
2022-09-04T21:28:26.003Z,99895.47
2022-09-04T21:31:44.134Z,99899.81
2022-09-04T21:34:31.174Z,99898.16
2022-09-04T21:37:11.684Z,99898.16
2022-09-04T21:40:49.652Z,99902.34
2022-09-04T21:43:50.086Z,99909.22
2022-09-04T21:46:57.779Z,99900.56
2022-09-04T21:49:47.974Z,99904.66
2022-09-04T21:52:53.440Z,99897.41
2022-09-04T21:58:26.445Z,99907.72
2022-09-04T22:02:39.898Z,99912.06
2022-09-04T22:02:40.984Z,99911.03
2022-09-04T22:05:18.429Z,99918.00
2022-09-04T22:13:26.608Z,99907.72
2022-09-04T22:13:30.995Z,99907.19
2022-09-04T22:14:50.000Z,99904.59
2022-09-04T22:17:22.456Z,99909.81
2022-09-04T22:20:19.568Z,99913.66
2022-09-04T22:23:20.214Z,99915.94
2022-09-04T22:26:23.550Z,99913.34
2022-09-04T22:29:26.606Z,99908.97
2022-09-04T22:32:29.936Z,99916.06
2022-09-04T22:35:27.795Z,99914.72
2022-09-04T22:38:28.685Z,99920.59
2022-09-04T22:41:37.977Z,99918.59
2022-09-04T22:44:36.752Z,99916.94
2022-09-04T22:47:29.949Z,99920.44
2022-09-04T22:50:37.347Z,99921.47
2022-09-04T22:53:48.938Z,99913.22
2022-09-04T22:56:34.322Z,99932.59
2022-09-04T22:59:27.782Z,99924.53
2022-09-04T23:02:13.611Z,99928.44
2022-09-04T23:05:00.837Z,99929.09
2022-09-04T23:13:44.859Z,99927.72
2022-09-04T23:13:50.737Z,99931.50
2022-09-04T23:14:53.888Z,99936.09
2022-09-04T23:19:43.943Z,99939.41
2022-09-04T23:26:32.532Z,99938.59
2022-09-04T23:26:42.064Z,99940.91
2022-09-04T23:27:46.250Z,99941.75
2022-09-04T23:30:25.228Z,99939.69
2022-09-04T23:33:27.678Z,99941.56
2022-09-04T23:36:33.834Z,99949.22
2022-09-04T23:39:27.797Z,99939.34
2022-09-04T23:42:39.717Z,99938.78
2022-09-04T23:45:48.795Z,99937.78
2022-09-04T23:48:58.096Z,99951.06
2022-09-04T23:52:04.922Z,99949.28
2022-09-04T23:55:05.556Z,99948.44
2022-09-04T23:58:34.067Z,99943.28
